sensor_id;sensor_type;location;lat;lon;timestamp;pressure;altitude;pressure_sealevel;temperature;humidity
70437;BME280;57877;39.750;-104.894;2022-11-04T00:02:17;83340.58;;;1.28;50.98
70437;BME280;57877;39.750;-104.894;2022-11-04T00:04:43;83345.19;;;1.67;50.17
70437;BME280;57877;39.750;-104.894;2022-11-04T00:07:09;83343.93;;;1.32;51.14
70437;BME280;57877;39.750;-104.894;2022-11-04T00:09:35;83346.81;;;0.30;52.13
70437;BME280;57877;39.750;-104.894;2022-11-04T00:12:01;83350.98;;;0.81;51.80
70437;BME280;57877;39.750;-104.894;2022-11-04T00:14:28;83353.99;;;0.57;52.67
70437;BME280;57877;39.750;-104.894;2022-11-04T00:16:52;83356.86;;;0.07;54.36
70437;BME280;57877;39.750;-104.894;2022-11-04T00:19:18;83367.48;;;-0.14;54.10
70437;BME280;57877;39.750;-104.894;2022-11-04T00:21:44;83376.55;;;0.09;54.29
70437;BME280;57877;39.750;-104.894;2022-11-04T00:24:11;83393.47;;;-0.68;56.39
70437;BME280;57877;39.750;-104.894;2022-11-04T00:26:36;83394.96;;;-0.57;55.82
70437;BME280;57877;39.750;-104.894;2022-11-04T00:29:01;83395.65;;;-0.92;56.99
70437;BME280;57877;39.750;-104.894;2022-11-04T00:31:27;83396.16;;;-1.70;57.98
70437;BME280;57877;39.750;-104.894;2022-11-04T00:33:54;83393.08;;;-0.46;56.58
70437;BME280;57877;39.750;-104.894;2022-11-04T00:36:18;83396.05;;;0.15;54.94
70437;BME280;57877;39.750;-104.894;2022-11-04T00:38:44;83405.40;;;-0.22;55.06
70437;BME280;57877;39.750;-104.894;2022-11-04T00:41:08;83407.10;;;-1.00;56.62
70437;BME280;57877;39.750;-104.894;2022-11-04T00:43:33;83416.21;;;-0.26;55.76
70437;BME280;57877;39.750;-104.894;2022-11-04T00:45:59;83418.51;;;-1.49;57.43
70437;BME280;57877;39.750;-104.894;2022-11-04T00:48:24;83414.07;;;-1.51;57.61
70437;BME280;57877;39.750;-104.894;2022-11-04T00:50:49;83401.68;;;-1.69;58.82
70437;BME280;57877;39.750;-104.894;2022-11-04T00:53:20;83407.13;;;-2.26;59.56
70437;BME280;57877;39.750;-104.894;2022-11-04T00:55:39;83420.89;;;-1.62;58.45
70437;BME280;57877;39.750;-104.894;2022-11-04T00:58:05;83440.79;;;-0.75;57.22
70437;BME280;57877;39.750;-104.894;2022-11-04T01:00:31;83451.56;;;-0.61;56.02
70437;BME280;57877;39.750;-104.894;2022-11-04T01:02:57;83451.01;;;-1.65;57.43
70437;BME280;57877;39.750;-104.894;2022-11-04T01:05:24;83452.05;;;-1.77;57.41
70437;BME280;57877;39.750;-104.894;2022-11-04T01:07:48;83465.08;;;-1.85;58.81
70437;BME280;57877;39.750;-104.894;2022-11-04T01:10:14;83470.34;;;-2.17;59.87
70437;BME280;57877;39.750;-104.894;2022-11-04T01:12:38;83468.44;;;-0.65;57.12
70437;BME280;57877;39.750;-104.894;2022-11-04T01:15:05;83473.77;;;-1.58;58.06
70437;BME280;57877;39.750;-104.894;2022-11-04T01:17:30;83474.53;;;-1.11;57.29
70437;BME280;57877;39.750;-104.894;2022-11-04T01:19:56;83478.06;;;-1.61;58.38
70437;BME280;57877;39.750;-104.894;2022-11-04T01:22:21;83486.18;;;-1.10;56.70
70437;BME280;57877;39.750;-104.894;2022-11-04T01:24:47;83478.88;;;-1.62;57.42
70437;BME280;57877;39.750;-104.894;2022-11-04T01:27:11;83471.32;;;-1.55;57.23
70437;BME280;57877;39.750;-104.894;2022-11-04T01:29:37;83464.23;;;-0.84;56.55
70437;BME280;57877;39.750;-104.894;2022-11-04T01:32:02;83470.47;;;-1.27;58.80
70437;BME280;57877;39.750;-104.894;2022-11-04T01:34:27;83493.00;;;-0.72;55.68
70437;BME280;57877;39.750;-104.894;2022-11-04T01:36:52;83502.47;;;-1.04;55.74
70437;BME280;57877;39.750;-104.894;2022-11-04T01:39:17;83501.30;;;-0.94;56.09
70437;BME280;57877;39.750;-104.894;2022-11-04T01:41:42;83497.32;;;-0.27;54.19
70437;BME280;57877;39.750;-104.894;2022-11-04T01:46:38;83506.14;;;-0.12;54.40
70437;BME280;57877;39.750;-104.894;2022-11-04T01:49:05;83494.71;;;-0.02;54.06
70437;BME280;57877;39.750;-104.894;2022-11-04T01:51:24;83492.79;;;-0.84;54.25
70437;BME280;57877;39.750;-104.894;2022-11-04T01:53:50;83484.67;;;-1.20;54.53
70437;BME280;57877;39.750;-104.894;2022-11-04T01:56:15;83478.94;;;-1.01;54.60
70437;BME280;57877;39.750;-104.894;2022-11-04T01:58:43;83488.96;;;-1.82;56.28
70437;BME280;57877;39.750;-104.894;2022-11-04T02:01:06;83502.62;;;-1.39;54.72
70437;BME280;57877;39.750;-104.894;2022-11-04T02:03:34;83501.95;;;-0.54;52.69
70437;BME280;57877;39.750;-104.894;2022-11-04T02:05:57;83501.36;;;-2.43;55.59
70437;BME280;57877;39.750;-104.894;2022-11-04T02:08:23;83504.34;;;-1.54;54.77
70437;BME280;57877;39.750;-104.894;2022-11-04T02:10:51;83514.61;;;-1.40;53.56
70437;BME280;57877;39.750;-104.894;2022-11-04T02:13:14;83517.25;;;-2.47;56.32
70437;BME280;57877;39.750;-104.894;2022-11-04T02:15:43;83507.97;;;-1.32;55.52
70437;BME280;57877;39.750;-104.894;2022-11-04T02:18:18;83508.82;;;-1.45;53.58
70437;BME280;57877;39.750;-104.894;2022-11-04T02:20:38;83506.69;;;-1.84;54.41
70437;BME280;57877;39.750;-104.894;2022-11-04T02:25:30;83521.91;;;-2.45;57.25
70437;BME280;57877;39.750;-104.894;2022-11-04T02:30:11;83546.50;;;-2.18;55.40
70437;BME280;57877;39.750;-104.894;2022-11-04T02:32:41;83541.21;;;-0.88;52.43
70437;BME280;57877;39.750;-104.894;2022-11-04T02:35:02;83537.75;;;-0.32;52.42
70437;BME280;57877;39.750;-104.894;2022-11-04T02:37:30;83547.04;;;-2.15;53.26
70437;BME280;57877;39.750;-104.894;2022-11-04T02:39:53;83539.67;;;-1.95;54.36
70437;BME280;57877;39.750;-104.894;2022-11-04T02:42:21;83532.37;;;-1.98;54.73
70437;BME280;57877;39.750;-104.894;2022-11-04T02:44:44;83540.00;;;-2.32;55.23
70437;BME280;57877;39.750;-104.894;2022-11-04T02:47:06;83547.08;;;-1.41;54.08
70437;BME280;57877;39.750;-104.894;2022-11-04T02:49:34;83564.34;;;-1.46;54.03
70437;BME280;57877;39.750;-104.894;2022-11-04T02:51:59;83567.76;;;-0.67;52.37
70437;BME280;57877;39.750;-104.894;2022-11-04T02:54:23;83567.41;;;-0.79;52.72
70437;BME280;57877;39.750;-104.894;2022-11-04T02:56:47;83568.50;;;-0.78;52.09
70437;BME280;57877;39.750;-104.894;2022-11-04T02:59:13;83563.22;;;-0.75;52.08
70437;BME280;57877;39.750;-104.894;2022-11-04T03:01:36;83568.14;;;-0.40;51.54
70437;BME280;57877;39.750;-104.894;2022-11-04T03:04:04;83574.25;;;-0.29;51.48
70437;BME280;57877;39.750;-104.894;2022-11-04T03:06:25;83569.06;;;-0.28;50.69
70437;BME280;57877;39.750;-104.894;2022-11-04T03:08:51;83576.45;;;0.02;49.55
70437;BME280;57877;39.750;-104.894;2022-11-04T03:11:17;83574.73;;;-0.15;49.83
70437;BME280;57877;39.750;-104.894;2022-11-04T03:13:45;83574.59;;;-0.38;49.67
70437;BME280;57877;39.750;-104.894;2022-11-04T03:16:11;83566.93;;;-0.31;50.64
70437;BME280;57877;39.750;-104.894;2022-11-04T03:18:37;83560.59;;;-0.10;50.18
70437;BME280;57877;39.750;-104.894;2022-11-04T03:20:59;83557.86;;;-0.79;50.09
70437;BME280;57877;39.750;-104.894;2022-11-04T03:23:21;83554.14;;;-0.73;50.55
70437;BME280;57877;39.750;-104.894;2022-11-04T03:25:49;83559.68;;;-0.60;50.45
70437;BME280;57877;39.750;-104.894;2022-11-04T03:28:21;83569.99;;;-0.31;50.26
70437;BME280;57877;39.750;-104.894;2022-11-04T03:30:40;83564.70;;;-0.56;49.84
70437;BME280;57877;39.750;-104.894;2022-11-04T03:33:06;83558.16;;;-0.74;50.04
70437;BME280;57877;39.750;-104.894;2022-11-04T03:35:27;83562.13;;;-0.58;50.66
70437;BME280;57877;39.750;-104.894;2022-11-04T03:37:53;83571.21;;;-0.47;50.02
70437;BME280;57877;39.750;-104.894;2022-11-04T03:40:19;83577.24;;;-0.27;49.47
70437;BME280;57877;39.750;-104.894;2022-11-04T03:42:46;83575.65;;;0.07;48.45
70437;BME280;57877;39.750;-104.894;2022-11-04T03:45:09;83570.95;;;0.11;47.89
70437;BME280;57877;39.750;-104.894;2022-11-04T03:47:34;83565.97;;;0.06;48.02
70437;BME280;57877;39.750;-104.894;2022-11-04T03:50:03;83562.32;;;-0.27;48.86
70437;BME280;57877;39.750;-104.894;2022-11-04T03:52:25;83561.03;;;-0.12;48.88
70437;BME280;57877;39.750;-104.894;2022-11-04T03:54:55;83548.86;;;-0.02;48.41
70437;BME280;57877;39.750;-104.894;2022-11-04T03:57:26;83539.26;;;-0.79;49.42
70437;BME280;57877;39.750;-104.894;2022-11-04T03:59:53;83521.52;;;-0.23;47.66
70437;BME280;57877;39.750;-104.894;2022-11-04T04:02:10;83487.33;;;-1.71;51.09
70437;BME280;57877;39.750;-104.894;2022-11-04T04:04:32;83450.26;;;-2.38;54.42
70437;BME280;57877;39.750;-104.894;2022-11-04T04:07:00;83430.69;;;-3.33;57.38
70437;BME280;57877;39.750;-104.894;2022-11-04T04:09:23;83505.80;;;-1.84;54.03
70437;BME280;57877;39.750;-104.894;2022-11-04T04:11:50;83526.28;;;-1.18;51.26
70437;BME280;57877;39.750;-104.894;2022-11-04T04:14:17;83564.06;;;-1.03;50.87
70437;BME280;57877;39.750;-104.894;2022-11-04T04:16:37;83584.48;;;-0.72;50.36
70437;BME280;57877;39.750;-104.894;2022-11-04T04:19:03;83595.37;;;-0.14;48.76
70437;BME280;57877;39.750;-104.894;2022-11-04T04:21:29;83594.26;;;-0.84;48.99
70437;BME280;57877;39.750;-104.894;2022-11-04T04:23:53;83584.65;;;-0.75;48.51
70437;BME280;57877;39.750;-104.894;2022-11-04T04:26:19;83593.89;;;-0.20;48.08
70437;BME280;57877;39.750;-104.894;2022-11-04T04:28:42;83594.52;;;0.04;47.96
70437;BME280;57877;39.750;-104.894;2022-11-04T04:31:08;83589.37;;;-0.36;48.16
70437;BME280;57877;39.750;-104.894;2022-11-04T04:33:31;83588.59;;;-0.74;48.68
70437;BME280;57877;39.750;-104.894;2022-11-04T04:35:57;83583.49;;;-0.73;49.06
70437;BME280;57877;39.750;-104.894;2022-11-04T04:38:23;83571.49;;;-0.88;49.40
70437;BME280;57877;39.750;-104.894;2022-11-04T04:40:52;83576.51;;;-0.73;50.20
70437;BME280;57877;39.750;-104.894;2022-11-04T04:43:15;83576.29;;;-0.51;49.77
70437;BME280;57877;39.750;-104.894;2022-11-04T04:45:38;83578.05;;;-0.98;49.08
70437;BME280;57877;39.750;-104.894;2022-11-04T04:48:10;83579.68;;;-0.54;49.83
70437;BME280;57877;39.750;-104.894;2022-11-04T04:50:32;83583.53;;;-0.20;49.25
70437;BME280;57877;39.750;-104.894;2022-11-04T04:52:55;83579.72;;;-0.94;49.67
70437;BME280;57877;39.750;-104.894;2022-11-04T04:55:18;83586.98;;;-0.38;49.10
70437;BME280;57877;39.750;-104.894;2022-11-04T04:57:43;83599.31;;;-0.47;48.80
70437;BME280;57877;39.750;-104.894;2022-11-04T05:00:11;83602.89;;;-0.38;48.17
70437;BME280;57877;39.750;-104.894;2022-11-04T05:02:33;83602.12;;;0.01;47.31
70437;BME280;57877;39.750;-104.894;2022-11-04T05:04:58;83601.75;;;0.25;47.45
70437;BME280;57877;39.750;-104.894;2022-11-04T05:07:23;83605.92;;;0.36;47.06
70437;BME280;57877;39.750;-104.894;2022-11-04T05:09:48;83607.98;;;-0.44;47.52
70437;BME280;57877;39.750;-104.894;2022-11-04T05:12:13;83604.83;;;-0.54;48.54
70437;BME280;57877;39.750;-104.894;2022-11-04T05:14:38;83597.60;;;-0.85;49.60
70437;BME280;57877;39.750;-104.894;2022-11-04T05:17:04;83591.79;;;-0.64;49.18
70437;BME280;57877;39.750;-104.894;2022-11-04T05:19:28;83593.76;;;-0.61;48.59
70437;BME280;57877;39.750;-104.894;2022-11-04T05:21:54;83586.30;;;-0.88;48.66
70437;BME280;57877;39.750;-104.894;2022-11-04T05:24:19;83574.81;;;-1.37;49.24
70437;BME280;57877;39.750;-104.894;2022-11-04T05:26:44;83569.68;;;-1.08;49.43
70437;BME280;57877;39.750;-104.894;2022-11-04T05:29:09;83563.03;;;-1.26;48.85
70437;BME280;57877;39.750;-104.894;2022-11-04T05:31:34;83560.16;;;-0.80;49.35
70437;BME280;57877;39.750;-104.894;2022-11-04T05:33:59;83547.49;;;-1.44;49.88
70437;BME280;57877;39.750;-104.894;2022-11-04T05:36:25;83548.43;;;-0.99;49.04
70437;BME280;57877;39.750;-104.894;2022-11-04T05:38:51;83552.56;;;-0.87;48.62
70437;BME280;57877;39.750;-104.894;2022-11-04T05:41:15;83548.96;;;-0.96;47.22
70437;BME280;57877;39.750;-104.894;2022-11-04T05:43:41;83535.93;;;-0.92;47.49
70437;BME280;57877;39.750;-104.894;2022-11-04T05:46:06;83522.54;;;-0.70;47.71
70437;BME280;57877;39.750;-104.894;2022-11-04T05:48:31;83517.87;;;-0.79;47.58
70437;BME280;57877;39.750;-104.894;2022-11-04T05:50:56;83516.53;;;-0.67;46.51
70437;BME280;57877;39.750;-104.894;2022-11-04T05:53:22;83520.19;;;-0.81;47.32
70437;BME280;57877;39.750;-104.894;2022-11-04T05:55:47;83521.53;;;-0.15;46.27
70437;BME280;57877;39.750;-104.894;2022-11-04T05:58:12;83531.06;;;-0.46;46.41
70437;BME280;57877;39.750;-104.894;2022-11-04T06:00:37;83537.58;;;-0.53;46.40
70437;BME280;57877;39.750;-104.894;2022-11-04T06:03:02;83549.70;;;-0.37;45.51
70437;BME280;57877;39.750;-104.894;2022-11-04T06:05:27;83551.35;;;-1.18;46.20
70437;BME280;57877;39.750;-104.894;2022-11-04T06:07:52;83553.57;;;-0.26;45.09
70437;BME280;57877;39.750;-104.894;2022-11-04T06:10:17;83551.68;;;-0.41;45.54
70437;BME280;57877;39.750;-104.894;2022-11-04T06:12:42;83553.04;;;-0.65;45.34
70437;BME280;57877;39.750;-104.894;2022-11-04T06:15:08;83543.36;;;-0.29;45.72
70437;BME280;57877;39.750;-104.894;2022-11-04T06:17:32;83528.02;;;-0.42;45.93
70437;BME280;57877;39.750;-104.894;2022-11-04T06:19:57;83520.07;;;-0.46;45.54
70437;BME280;57877;39.750;-104.894;2022-11-04T06:22:22;83514.01;;;-0.98;46.47
70437;BME280;57877;39.750;-104.894;2022-11-04T06:24:47;83508.43;;;-0.66;46.33
70437;BME280;57877;39.750;-104.894;2022-11-04T06:27:13;83503.81;;;-0.42;45.06
70437;BME280;57877;39.750;-104.894;2022-11-04T06:29:38;83505.26;;;-0.40;46.15
70437;BME280;57877;39.750;-104.894;2022-11-04T06:32:04;83515.13;;;-0.82;46.03
70437;BME280;57877;39.750;-104.894;2022-11-04T06:34:29;83522.75;;;-0.48;45.35
70437;BME280;57877;39.750;-104.894;2022-11-04T06:36:54;83524.85;;;-0.59;45.29
70437;BME280;57877;39.750;-104.894;2022-11-04T06:39:20;83518.66;;;-0.21;43.53
70437;BME280;57877;39.750;-104.894;2022-11-04T06:41:46;83524.62;;;-0.26;43.91
70437;BME280;57877;39.750;-104.894;2022-11-04T06:44:12;83518.07;;;-0.29;44.13
70437;BME280;57877;39.750;-104.894;2022-11-04T06:46:39;83514.79;;;0.07;44.58
70437;BME280;57877;39.750;-104.894;2022-11-04T06:49:03;83506.15;;;-0.38;45.33
70437;BME280;57877;39.750;-104.894;2022-11-04T06:51:32;83512.67;;;-0.23;45.94
70437;BME280;57877;39.750;-104.894;2022-11-04T06:53:53;83534.55;;;-0.05;44.80
70437;BME280;57877;39.750;-104.894;2022-11-04T06:56:18;83538.51;;;-0.26;44.00
70437;BME280;57877;39.750;-104.894;2022-11-04T06:58:43;83535.04;;;-0.16;44.80
70437;BME280;57877;39.750;-104.894;2022-11-04T07:01:08;83537.97;;;0.20;44.30
70437;BME280;57877;39.750;-104.894;2022-11-04T07:03:34;83536.20;;;-0.12;44.36
70437;BME280;57877;39.750;-104.894;2022-11-04T07:05:59;83539.34;;;-0.41;44.65
70437;BME280;57877;39.750;-104.894;2022-11-04T07:08:24;83534.15;;;-0.26;45.07
70437;BME280;57877;39.750;-104.894;2022-11-04T07:10:49;83533.27;;;0.12;43.90
70437;BME280;57877;39.750;-104.894;2022-11-04T07:13:14;83532.18;;;-0.13;44.41
70437;BME280;57877;39.750;-104.894;2022-11-04T07:15:40;83528.87;;;0.12;44.01
70437;BME280;57877;39.750;-104.894;2022-11-04T07:18:05;83521.60;;;-0.33;45.02
70437;BME280;57877;39.750;-104.894;2022-11-04T07:20:30;83518.06;;;-0.40;45.17
70437;BME280;57877;39.750;-104.894;2022-11-04T07:22:55;83523.09;;;-0.69;45.58
70437;BME280;57877;39.750;-104.894;2022-11-04T07:25:20;83520.02;;;-0.62;45.37
70437;BME280;57877;39.750;-104.894;2022-11-04T07:27:45;83518.13;;;-0.70;46.26
70437;BME280;57877;39.750;-104.894;2022-11-04T07:30:11;83513.23;;;-0.95;45.80
70437;BME280;57877;39.750;-104.894;2022-11-04T07:32:35;83516.52;;;-0.60;45.01
70437;BME280;57877;39.750;-104.894;2022-11-04T07:35:00;83507.67;;;-0.82;45.94
70437;BME280;57877;39.750;-104.894;2022-11-04T07:37:26;83501.87;;;-0.88;45.45
70437;BME280;57877;39.750;-104.894;2022-11-04T07:39:51;83503.33;;;-0.58;45.49
70437;BME280;57877;39.750;-104.894;2022-11-04T07:42:16;83503.87;;;-0.60;46.02
70437;BME280;57877;39.750;-104.894;2022-11-04T07:44:41;83498.72;;;-0.41;45.53
70437;BME280;57877;39.750;-104.894;2022-11-04T07:47:06;83484.97;;;-0.14;45.09
70437;BME280;57877;39.750;-104.894;2022-11-04T07:49:31;83479.64;;;-0.57;45.30
70437;BME280;57877;39.750;-104.894;2022-11-04T07:51:56;83481.25;;;-0.27;45.13
70437;BME280;57877;39.750;-104.894;2022-11-04T07:54:21;83485.38;;;-0.55;45.78
70437;BME280;57877;39.750;-104.894;2022-11-04T07:56:46;83483.21;;;-0.59;45.52
70437;BME280;57877;39.750;-104.894;2022-11-04T07:59:13;83477.61;;;-0.53;45.50
70437;BME280;57877;39.750;-104.894;2022-11-04T08:01:38;83470.81;;;-0.47;45.42
70437;BME280;57877;39.750;-104.894;2022-11-04T08:04:05;83465.82;;;-0.55;45.72
70437;BME280;57877;39.750;-104.894;2022-11-04T08:06:31;83463.85;;;-0.55;45.61
70437;BME280;57877;39.750;-104.894;2022-11-04T08:08:57;83456.84;;;-0.54;44.83
70437;BME280;57877;39.750;-104.894;2022-11-04T08:11:22;83457.58;;;-0.27;45.55
70437;BME280;57877;39.750;-104.894;2022-11-04T08:13:46;83467.69;;;-0.22;45.53
70437;BME280;57877;39.750;-104.894;2022-11-04T08:16:13;83463.56;;;-0.26;44.78
70437;BME280;57877;39.750;-104.894;2022-11-04T08:18:36;83462.74;;;-0.37;44.65
70437;BME280;57877;39.750;-104.894;2022-11-04T08:21:02;83470.31;;;-0.26;45.08
70437;BME280;57877;39.750;-104.894;2022-11-04T08:23:28;83478.98;;;-0.66;45.88
70437;BME280;57877;39.750;-104.894;2022-11-04T08:25:54;83480.56;;;-0.63;46.43
70437;BME280;57877;39.750;-104.894;2022-11-04T08:28:20;83482.98;;;-0.91;47.54
70437;BME280;57877;39.750;-104.894;2022-11-04T08:30:53;83484.07;;;-1.11;47.64
70437;BME280;57877;39.750;-104.894;2022-11-04T08:33:10;83471.59;;;-1.72;50.05
70437;BME280;57877;39.750;-104.894;2022-11-04T08:35:35;83473.50;;;-1.34;49.53
70437;BME280;57877;39.750;-104.894;2022-11-04T08:38:00;83484.39;;;-1.31;50.26
70437;BME280;57877;39.750;-104.894;2022-11-04T08:40:25;83482.62;;;-2.05;51.79
70437;BME280;57877;39.750;-104.894;2022-11-04T08:42:58;83486.09;;;-1.19;51.70
70437;BME280;57877;39.750;-104.894;2022-11-04T08:45:15;83493.29;;;-0.98;50.40
70437;BME280;57877;39.750;-104.894;2022-11-04T08:47:40;83489.67;;;-1.47;50.21
70437;BME280;57877;39.750;-104.894;2022-11-04T08:50:06;83484.88;;;-1.16;52.07
70437;BME280;57877;39.750;-104.894;2022-11-04T08:52:30;83485.99;;;-1.76;52.49
70437;BME280;57877;39.750;-104.894;2022-11-04T08:54:55;83486.53;;;-1.97;52.31
70437;BME280;57877;39.750;-104.894;2022-11-04T08:57:20;83486.23;;;-2.08;52.78
70437;BME280;57877;39.750;-104.894;2022-11-04T08:59:45;83483.85;;;-2.14;53.05
70437;BME280;57877;39.750;-104.894;2022-11-04T09:02:13;83482.30;;;-2.66;55.18
70437;BME280;57877;39.750;-104.894;2022-11-04T09:04:35;83484.16;;;-2.55;54.95
70437;BME280;57877;39.750;-104.894;2022-11-04T09:07:02;83491.98;;;-2.11;54.88
70437;BME280;57877;39.750;-104.894;2022-11-04T09:09:27;83495.30;;;-2.16;54.10
70437;BME280;57877;39.750;-104.894;2022-11-04T09:11:52;83498.24;;;-2.33;55.03
70437;BME280;57877;39.750;-104.894;2022-11-04T09:14:17;83493.15;;;-3.00;56.36
70437;BME280;57877;39.750;-104.894;2022-11-04T09:16:42;83489.53;;;-1.65;54.46
70437;BME280;57877;39.750;-104.894;2022-11-04T09:19:08;83484.58;;;-1.60;52.31
70437;BME280;57877;39.750;-104.894;2022-11-04T09:21:32;83481.09;;;-1.27;52.62
70437;BME280;57877;39.750;-104.894;2022-11-04T09:23:57;83476.87;;;-1.22;51.78
70437;BME280;57877;39.750;-104.894;2022-11-04T09:26:23;83472.20;;;-2.06;53.78
70437;BME280;57877;39.750;-104.894;2022-11-04T09:28:47;83471.29;;;-2.02;53.56
70437;BME280;57877;39.750;-104.894;2022-11-04T09:31:15;83467.45;;;-2.28;53.62
70437;BME280;57877;39.750;-104.894;2022-11-04T09:33:39;83467.09;;;-1.39;53.04
70437;BME280;57877;39.750;-104.894;2022-11-04T09:36:03;83465.25;;;-1.22;51.97
70437;BME280;57877;39.750;-104.894;2022-11-04T09:38:28;83458.35;;;-1.32;51.76
70437;BME280;57877;39.750;-104.894;2022-11-04T09:40:54;83452.35;;;-1.08;50.61
70437;BME280;57877;39.750;-104.894;2022-11-04T09:43:28;83446.52;;;-1.32;51.81
70437;BME280;57877;39.750;-104.894;2022-11-04T09:45:45;83442.91;;;-0.81;50.34
70437;BME280;57877;39.750;-104.894;2022-11-04T09:48:18;83448.57;;;-1.47;51.27
70437;BME280;57877;39.750;-104.894;2022-11-04T09:50:43;83450.76;;;-1.20;50.69
70437;BME280;57877;39.750;-104.894;2022-11-04T09:53:04;83451.74;;;-1.40;51.11
70437;BME280;57877;39.750;-104.894;2022-11-04T09:55:29;83445.31;;;-0.56;49.17
70437;BME280;57877;39.750;-104.894;2022-11-04T09:57:53;83445.64;;;-1.62;49.55
70437;BME280;57877;39.750;-104.894;2022-11-04T10:00:17;83445.36;;;-0.54;48.30
70437;BME280;57877;39.750;-104.894;2022-11-04T10:02:48;83447.90;;;-0.82;48.55
70437;BME280;57877;39.750;-104.894;2022-11-04T10:05:15;83443.61;;;-1.29;49.65
70437;BME280;57877;39.750;-104.894;2022-11-04T10:07:42;83442.96;;;-1.30;51.47
70437;BME280;57877;39.750;-104.894;2022-11-04T10:10:05;83444.97;;;-0.72;49.81
70437;BME280;57877;39.750;-104.894;2022-11-04T10:14:56;83446.27;;;-2.00;51.67
70437;BME280;57877;39.750;-104.894;2022-11-04T10:17:22;83447.53;;;-1.68;51.78
70437;BME280;57877;39.750;-104.894;2022-11-04T10:19:46;83446.70;;;-2.00;52.95
70437;BME280;57877;39.750;-104.894;2022-11-04T10:22:03;83445.71;;;-1.95;52.06
70437;BME280;57877;39.750;-104.894;2022-11-04T10:24:36;83446.88;;;-2.17;53.24
70437;BME280;57877;39.750;-104.894;2022-11-04T10:26:55;83444.76;;;-2.14;53.93
70437;BME280;57877;39.750;-104.894;2022-11-04T10:29:24;83447.62;;;-2.59;54.69
70437;BME280;57877;39.750;-104.894;2022-11-04T10:31:43;83450.29;;;-3.30;57.11
70437;BME280;57877;39.750;-104.894;2022-11-04T10:34:14;83450.30;;;-2.84;56.28
70437;BME280;57877;39.750;-104.894;2022-11-04T10:36:34;83448.20;;;-3.15;56.05
70437;BME280;57877;39.750;-104.894;2022-11-04T10:39:02;83453.83;;;-2.62;55.54
70437;BME280;57877;39.750;-104.894;2022-11-04T10:41:29;83460.78;;;-2.38;53.53
70437;BME280;57877;39.750;-104.894;2022-11-04T10:43:50;83461.98;;;-2.49;52.83
70437;BME280;57877;39.750;-104.894;2022-11-04T10:46:25;83463.25;;;-2.97;54.51
70437;BME280;57877;39.750;-104.894;2022-11-04T10:48:44;83463.06;;;-2.59;53.94
70437;BME280;57877;39.750;-104.894;2022-11-04T10:51:05;83465.90;;;-2.86;53.89
70437;BME280;57877;39.750;-104.894;2022-11-04T10:53:31;83466.23;;;-2.68;53.25
70437;BME280;57877;39.750;-104.894;2022-11-04T10:56:03;83467.47;;;-2.15;53.45
70437;BME280;57877;39.750;-104.894;2022-11-04T10:58:24;83467.23;;;-2.35;53.30
70437;BME280;57877;39.750;-104.894;2022-11-04T11:00:48;83467.90;;;-1.66;51.07
70437;BME280;57877;39.750;-104.894;2022-11-04T11:05:37;83468.09;;;-2.53;52.61
70437;BME280;57877;39.750;-104.894;2022-11-04T11:08:03;83466.16;;;-3.37;53.78
70437;BME280;57877;39.750;-104.894;2022-11-04T11:10:29;83464.16;;;-2.91;54.37
70437;BME280;57877;39.750;-104.894;2022-11-04T11:12:56;83465.54;;;-3.60;55.55
70437;BME280;57877;39.750;-104.894;2022-11-04T11:15:26;83458.30;;;-2.64;53.28
70437;BME280;57877;39.750;-104.894;2022-11-04T11:17:44;83450.30;;;-2.64;52.52
70437;BME280;57877;39.750;-104.894;2022-11-04T11:20:19;83449.09;;;-1.27;50.57
70437;BME280;57877;39.750;-104.894;2022-11-04T11:22:37;83452.36;;;-2.13;50.69
70437;BME280;57877;39.750;-104.894;2022-11-04T11:27:24;83460.03;;;-0.90;47.96
70437;BME280;57877;39.750;-104.894;2022-11-04T11:29:49;83458.70;;;-1.16;49.20
70437;BME280;57877;39.750;-104.894;2022-11-04T11:32:24;83457.93;;;-1.27;49.32
70437;BME280;57877;39.750;-104.894;2022-11-04T11:34:39;83456.44;;;-1.37;49.13
70437;BME280;57877;39.750;-104.894;2022-11-04T11:37:12;83459.25;;;-1.31;48.62
70437;BME280;57877;39.750;-104.894;2022-11-04T11:39:30;83462.36;;;-0.63;48.32
70437;BME280;57877;39.750;-104.894;2022-11-04T11:42:03;83461.75;;;-0.87;47.41
70437;BME280;57877;39.750;-104.894;2022-11-04T11:44:25;83463.07;;;-0.48;47.19
70437;BME280;57877;39.750;-104.894;2022-11-04T11:46:50;83459.99;;;-0.60;46.55
70437;BME280;57877;39.750;-104.894;2022-11-04T11:51:37;83460.44;;;-0.97;46.49
70437;BME280;57877;39.750;-104.894;2022-11-04T11:54:14;83457.87;;;-0.68;45.84
70437;BME280;57877;39.750;-104.894;2022-11-04T11:56:31;83459.13;;;-0.66;46.03
70437;BME280;57877;39.750;-104.894;2022-11-04T11:58:52;83460.59;;;-0.60;45.54
70437;BME280;57877;39.750;-104.894;2022-11-04T12:01:17;83460.37;;;-0.40;45.10
70437;BME280;57877;39.750;-104.894;2022-11-04T12:03:43;83463.25;;;-0.63;45.45
70437;BME280;57877;39.750;-104.894;2022-11-04T12:06:17;83465.41;;;-0.68;45.42
70437;BME280;57877;39.750;-104.894;2022-11-04T12:08:42;83467.01;;;-0.79;46.17
70437;BME280;57877;39.750;-104.894;2022-11-04T12:10:59;83470.78;;;-0.71;45.09
70437;BME280;57877;39.750;-104.894;2022-11-04T12:13:23;83473.10;;;-0.75;44.94
70437;BME280;57877;39.750;-104.894;2022-11-04T12:15:55;83476.89;;;-0.40;44.27
70437;BME280;57877;39.750;-104.894;2022-11-04T12:20:44;83484.66;;;-0.21;44.13
70437;BME280;57877;39.750;-104.894;2022-11-04T12:23:05;83483.25;;;-0.65;45.40
70437;BME280;57877;39.750;-104.894;2022-11-04T12:25:33;83480.99;;;-0.60;44.94
70437;BME280;57877;39.750;-104.894;2022-11-04T12:28:00;83483.09;;;-0.34;44.85
70437;BME280;57877;39.750;-104.894;2022-11-04T12:30:20;83483.11;;;-0.01;43.96
70437;BME280;57877;39.750;-104.894;2022-11-04T12:32:55;83479.52;;;-0.42;44.50
70437;BME280;57877;39.750;-104.894;2022-11-04T12:35:22;83479.40;;;0.18;43.21
70437;BME280;57877;39.750;-104.894;2022-11-04T12:37:40;83476.89;;;-0.56;44.30
70437;BME280;57877;39.750;-104.894;2022-11-04T12:40:11;83475.20;;;-0.19;43.52